sensor_id;sensor_type;location;lat;lon;timestamp;P1;durP1;ratioP1;P2;durP2;ratioP2
43710;SDS011;29309;42.682;23.372;2023-05-02T00:01:36;6.10;;;3.53;;
43710;SDS011;29309;42.682;23.372;2023-05-02T00:04:02;6.30;;;3.60;;
43710;SDS011;29309;42.682;23.372;2023-05-02T00:06:29;8.45;;;3.40;;
43710;SDS011;29309;42.682;23.372;2023-05-02T00:08:55;5.95;;;3.75;;
43710;SDS011;29309;42.682;23.372;2023-05-02T00:11:21;6.53;;;3.67;;
43710;SDS011;29309;42.682;23.372;2023-05-02T00:13:47;3.58;;;3.08;;
43710;SDS011;29309;42.682;23.372;2023-05-02T00:16:13;6.40;;;3.70;;
43710;SDS011;29309;42.682;23.372;2023-05-02T00:18:38;6.75;;;3.50;;
43710;SDS011;29309;42.682;23.372;2023-05-02T00:21:04;5.60;;;3.50;;
43710;SDS011;29309;42.682;23.372;2023-05-02T00:23:30;6.00;;;4.57;;
43710;SDS011;29309;42.682;23.372;2023-05-02T00:25:55;5.10;;;3.38;;
43710;SDS011;29309;42.682;23.372;2023-05-02T00:28:21;5.53;;;3.72;;
43710;SDS011;29309;42.682;23.372;2023-05-02T00:30:46;6.53;;;3.70;;
43710;SDS011;29309;42.682;23.372;2023-05-02T00:33:12;4.60;;;3.25;;
43710;SDS011;29309;42.682;23.372;2023-05-02T00:35:38;4.25;;;3.17;;
43710;SDS011;29309;42.682;23.372;2023-05-02T00:38:04;4.22;;;3.60;;
43710;SDS011;29309;42.682;23.372;2023-05-02T00:40:30;4.82;;;2.80;;
43710;SDS011;29309;42.682;23.372;2023-05-02T00:42:56;6.95;;;3.22;;
43710;SDS011;29309;42.682;23.372;2023-05-02T00:45:21;5.88;;;3.33;;
43710;SDS011;29309;42.682;23.372;2023-05-02T00:47:48;9.70;;;5.60;;
43710;SDS011;29309;42.682;23.372;2023-05-02T00:50:14;4.80;;;3.13;;
43710;SDS011;29309;42.682;23.372;2023-05-02T00:52:41;7.03;;;3.00;;
43710;SDS011;29309;42.682;23.372;2023-05-02T00:55:07;4.13;;;3.13;;
43710;SDS011;29309;42.682;23.372;2023-05-02T00:57:33;4.63;;;3.63;;
43710;SDS011;29309;42.682;23.372;2023-05-02T00:59:58;5.10;;;3.60;;
43710;SDS011;29309;42.682;23.372;2023-05-02T01:05:29;3.60;;;3.15;;
43710;SDS011;29309;42.682;23.372;2023-05-02T01:08:19;5.28;;;3.97;;
43710;SDS011;29309;42.682;23.372;2023-05-02T01:11:01;4.78;;;4.20;;
43710;SDS011;29309;42.682;23.372;2023-05-02T01:13:32;4.63;;;3.60;;
43710;SDS011;29309;42.682;23.372;2023-05-02T01:15:59;6.80;;;3.95;;
43710;SDS011;29309;42.682;23.372;2023-05-02T01:18:29;5.13;;;3.80;;
43710;SDS011;29309;42.682;23.372;2023-05-02T01:21:00;4.65;;;3.53;;
43710;SDS011;29309;42.682;23.372;2023-05-02T01:29:26;6.25;;;3.80;;
43710;SDS011;29309;42.682;23.372;2023-05-02T01:31:54;4.68;;;3.22;;
43710;SDS011;29309;42.682;23.372;2023-05-02T01:34:22;5.03;;;3.67;;
43710;SDS011;29309;42.682;23.372;2023-05-02T01:36:49;5.80;;;3.75;;
43710;SDS011;29309;42.682;23.372;2023-05-02T01:39:19;9.15;;;4.13;;
43710;SDS011;29309;42.682;23.372;2023-05-02T01:41:49;6.22;;;3.97;;
43710;SDS011;29309;42.682;23.372;2023-05-02T01:44:17;5.28;;;4.25;;
43710;SDS011;29309;42.682;23.372;2023-05-02T01:46:45;5.28;;;3.60;;
43710;SDS011;29309;42.682;23.372;2023-05-02T01:49:12;7.15;;;3.70;;
43710;SDS011;29309;42.682;23.372;2023-05-02T01:51:42;7.60;;;3.80;;
43710;SDS011;29309;42.682;23.372;2023-05-02T01:54:11;4.47;;;3.85;;
43710;SDS011;29309;42.682;23.372;2023-05-02T01:56:39;3.95;;;3.55;;
43710;SDS011;29309;42.682;23.372;2023-05-02T01:59:07;5.80;;;3.60;;
43710;SDS011;29309;42.682;23.372;2023-05-02T02:01:39;5.25;;;4.55;;
43710;SDS011;29309;42.682;23.372;2023-05-02T02:04:08;4.15;;;3.63;;
43710;SDS011;29309;42.682;23.372;2023-05-02T02:06:35;4.57;;;3.30;;
43710;SDS011;29309;42.682;23.372;2023-05-02T02:09:01;3.97;;;3.28;;
43710;SDS011;29309;42.682;23.372;2023-05-02T02:11:34;6.72;;;3.80;;
43710;SDS011;29309;42.682;23.372;2023-05-02T02:14:11;6.13;;;4.15;;
43710;SDS011;29309;42.682;23.372;2023-05-02T02:16:42;8.27;;;4.22;;
43710;SDS011;29309;42.682;23.372;2023-05-02T02:19:09;16.90;;;4.13;;
43710;SDS011;29309;42.682;23.372;2023-05-02T02:21:36;4.78;;;4.00;;
43710;SDS011;29309;42.682;23.372;2023-05-02T02:24:05;5.43;;;4.28;;
43710;SDS011;29309;42.682;23.372;2023-05-02T02:26:31;8.10;;;4.40;;
43710;SDS011;29309;42.682;23.372;2023-05-02T02:28:58;7.63;;;4.00;;
43710;SDS011;29309;42.682;23.372;2023-05-02T02:31:29;8.15;;;4.53;;
43710;SDS011;29309;42.682;23.372;2023-05-02T02:33:58;4.70;;;4.20;;
43710;SDS011;29309;42.682;23.372;2023-05-02T02:36:26;6.80;;;4.35;;
43710;SDS011;29309;42.682;23.372;2023-05-02T02:39:01;5.20;;;3.85;;
43710;SDS011;29309;42.682;23.372;2023-05-02T02:41:31;6.93;;;4.35;;
43710;SDS011;29309;42.682;23.372;2023-05-02T02:47:15;6.90;;;4.95;;
43710;SDS011;29309;42.682;23.372;2023-05-02T02:52:47;6.00;;;4.40;;
43710;SDS011;29309;42.682;23.372;2023-05-02T02:58:24;9.20;;;5.20;;
43710;SDS011;29309;42.682;23.372;2023-05-02T03:01:02;9.48;;;5.03;;
43710;SDS011;29309;42.682;23.372;2023-05-02T03:03:31;8.57;;;5.90;;
43710;SDS011;29309;42.682;23.372;2023-05-02T03:05:58;13.73;;;6.00;;
43710;SDS011;29309;42.682;23.372;2023-05-02T03:08:23;6.00;;;5.40;;
43710;SDS011;29309;42.682;23.372;2023-05-02T03:10:49;6.85;;;5.03;;
43710;SDS011;29309;42.682;23.372;2023-05-02T03:13:15;9.50;;;5.95;;
43710;SDS011;29309;42.682;23.372;2023-05-02T03:18:09;8.63;;;5.15;;
43710;SDS011;29309;42.682;23.372;2023-05-02T03:20:34;7.57;;;5.38;;
43710;SDS011;29309;42.682;23.372;2023-05-02T03:23:00;6.78;;;5.43;;
43710;SDS011;29309;42.682;23.372;2023-05-02T03:25:25;7.93;;;5.70;;
43710;SDS011;29309;42.682;23.372;2023-05-02T03:27:50;8.13;;;5.60;;
43710;SDS011;29309;42.682;23.372;2023-05-02T03:30:16;8.48;;;6.50;;
43710;SDS011;29309;42.682;23.372;2023-05-02T03:32:42;7.22;;;5.78;;
43710;SDS011;29309;42.682;23.372;2023-05-02T03:35:07;10.38;;;6.03;;
43710;SDS011;29309;42.682;23.372;2023-05-02T03:37:33;9.90;;;5.22;;
43710;SDS011;29309;42.682;23.372;2023-05-02T03:39:59;8.30;;;5.22;;
43710;SDS011;29309;42.682;23.372;2023-05-02T03:42:24;7.97;;;5.82;;
43710;SDS011;29309;42.682;23.372;2023-05-02T03:44:53;11.27;;;5.85;;
43710;SDS011;29309;42.682;23.372;2023-05-02T03:47:18;5.55;;;5.00;;
43710;SDS011;29309;42.682;23.372;2023-05-02T03:49:44;7.53;;;5.38;;
43710;SDS011;29309;42.682;23.372;2023-05-02T03:52:10;10.60;;;5.35;;
43710;SDS011;29309;42.682;23.372;2023-05-02T03:54:36;10.20;;;6.00;;
43710;SDS011;29309;42.682;23.372;2023-05-02T03:57:01;8.30;;;5.60;;
43710;SDS011;29309;42.682;23.372;2023-05-02T03:59:30;13.63;;;6.07;;
43710;SDS011;29309;42.682;23.372;2023-05-02T04:01:57;9.45;;;5.30;;
43710;SDS011;29309;42.682;23.372;2023-05-02T04:04:23;7.80;;;5.70;;
43710;SDS011;29309;42.682;23.372;2023-05-02T04:06:48;8.38;;;5.32;;
43710;SDS011;29309;42.682;23.372;2023-05-02T04:09:13;10.13;;;5.07;;
43710;SDS011;29309;42.682;23.372;2023-05-02T04:11:39;9.82;;;4.63;;
43710;SDS011;29309;42.682;23.372;2023-05-02T04:14:05;10.00;;;4.10;;
43710;SDS011;29309;42.682;23.372;2023-05-02T04:16:31;6.88;;;5.30;;
43710;SDS011;29309;42.682;23.372;2023-05-02T04:18:57;11.35;;;5.15;;
43710;SDS011;29309;42.682;23.372;2023-05-02T04:21:23;8.25;;;4.47;;
43710;SDS011;29309;42.682;23.372;2023-05-02T04:23:48;16.67;;;4.75;;
43710;SDS011;29309;42.682;23.372;2023-05-02T04:26:14;5.93;;;4.05;;
43710;SDS011;29309;42.682;23.372;2023-05-02T04:28:40;10.70;;;4.72;;
43710;SDS011;29309;42.682;23.372;2023-05-02T04:31:05;7.88;;;4.65;;
43710;SDS011;29309;42.682;23.372;2023-05-02T04:33:31;5.88;;;4.80;;
43710;SDS011;29309;42.682;23.372;2023-05-02T04:35:56;10.90;;;5.20;;
43710;SDS011;29309;42.682;23.372;2023-05-02T04:38:22;7.97;;;5.10;;
43710;SDS011;29309;42.682;23.372;2023-05-02T04:40:50;8.20;;;5.30;;
43710;SDS011;29309;42.682;23.372;2023-05-02T04:43:16;9.40;;;5.72;;
43710;SDS011;29309;42.682;23.372;2023-05-02T04:45:41;9.65;;;5.78;;
43710;SDS011;29309;42.682;23.372;2023-05-02T04:48:07;11.15;;;5.80;;
43710;SDS011;29309;42.682;23.372;2023-05-02T04:50:32;7.78;;;5.35;;
43710;SDS011;29309;42.682;23.372;2023-05-02T04:52:58;6.93;;;5.25;;
43710;SDS011;29309;42.682;23.372;2023-05-02T04:55:24;7.60;;;5.03;;
43710;SDS011;29309;42.682;23.372;2023-05-02T04:57:49;7.88;;;4.57;;
43710;SDS011;29309;42.682;23.372;2023-05-02T05:00:15;7.07;;;4.18;;
43710;SDS011;29309;42.682;23.372;2023-05-02T05:02:41;6.32;;;4.10;;
43710;SDS011;29309;42.682;23.372;2023-05-02T05:05:07;9.40;;;4.53;;
43710;SDS011;29309;42.682;23.372;2023-05-02T05:07:32;6.43;;;3.70;;
43710;SDS011;29309;42.682;23.372;2023-05-02T05:09:58;11.18;;;4.05;;
43710;SDS011;29309;42.682;23.372;2023-05-02T05:12:23;11.30;;;4.45;;
43710;SDS011;29309;42.682;23.372;2023-05-02T05:14:49;5.88;;;3.63;;
43710;SDS011;29309;42.682;23.372;2023-05-02T05:17:14;7.55;;;4.35;;
43710;SDS011;29309;42.682;23.372;2023-05-02T05:19:40;7.85;;;3.60;;
43710;SDS011;29309;42.682;23.372;2023-05-02T05:22:06;7.15;;;4.97;;
43710;SDS011;29309;42.682;23.372;2023-05-02T05:24:32;9.35;;;4.57;;
43710;SDS011;29309;42.682;23.372;2023-05-02T05:26:57;9.93;;;4.13;;
43710;SDS011;29309;42.682;23.372;2023-05-02T05:29:23;5.32;;;3.58;;
43710;SDS011;29309;42.682;23.372;2023-05-02T05:31:48;5.88;;;4.03;;
43710;SDS011;29309;42.682;23.372;2023-05-02T05:34:14;7.60;;;4.20;;
43710;SDS011;29309;42.682;23.372;2023-05-02T05:36:40;4.57;;;3.20;;
43710;SDS011;29309;42.682;23.372;2023-05-02T05:39:06;13.80;;;3.92;;
43710;SDS011;29309;42.682;23.372;2023-05-02T05:41:53;7.13;;;4.00;;
43710;SDS011;29309;42.682;23.372;2023-05-02T05:44:18;11.40;;;3.65;;
43710;SDS011;29309;42.682;23.372;2023-05-02T05:46:46;10.80;;;3.58;;
43710;SDS011;29309;42.682;23.372;2023-05-02T05:49:11;7.03;;;4.35;;
43710;SDS011;29309;42.682;23.372;2023-05-02T05:51:39;7.20;;;3.42;;
43710;SDS011;29309;42.682;23.372;2023-05-02T05:54:05;7.57;;;3.28;;
43710;SDS011;29309;42.682;23.372;2023-05-02T05:56:31;4.35;;;3.17;;
43710;SDS011;29309;42.682;23.372;2023-05-02T05:58:56;6.22;;;4.57;;
43710;SDS011;29309;42.682;23.372;2023-05-02T06:01:22;9.43;;;3.75;;
43710;SDS011;29309;42.682;23.372;2023-05-02T06:03:48;6.68;;;2.72;;
43710;SDS011;29309;42.682;23.372;2023-05-02T06:06:13;5.65;;;3.63;;
43710;SDS011;29309;42.682;23.372;2023-05-02T06:08:39;7.82;;;3.20;;
43710;SDS011;29309;42.682;23.372;2023-05-02T06:11:10;6.45;;;4.38;;
43710;SDS011;29309;42.682;23.372;2023-05-02T06:13:36;5.78;;;2.90;;
43710;SDS011;29309;42.682;23.372;2023-05-02T06:16:02;9.80;;;2.63;;
43710;SDS011;29309;42.682;23.372;2023-05-02T06:18:27;4.63;;;3.22;;
43710;SDS011;29309;42.682;23.372;2023-05-02T06:20:53;6.40;;;2.72;;
43710;SDS011;29309;42.682;23.372;2023-05-02T06:23:18;6.72;;;2.80;;
43710;SDS011;29309;42.682;23.372;2023-05-02T06:25:44;7.40;;;2.90;;
43710;SDS011;29309;42.682;23.372;2023-05-02T06:28:09;5.05;;;2.42;;
43710;SDS011;29309;42.682;23.372;2023-05-02T06:30:34;6.00;;;2.80;;
43710;SDS011;29309;42.682;23.372;2023-05-02T06:33:02;6.35;;;2.58;;
43710;SDS011;29309;42.682;23.372;2023-05-02T06:35:28;9.88;;;2.85;;
43710;SDS011;29309;42.682;23.372;2023-05-02T06:37:54;5.07;;;2.40;;
43710;SDS011;29309;42.682;23.372;2023-05-02T06:40:19;4.57;;;2.40;;
43710;SDS011;29309;42.682;23.372;2023-05-02T06:42:44;5.10;;;2.40;;
43710;SDS011;29309;42.682;23.372;2023-05-02T06:45:10;4.57;;;2.47;;
43710;SDS011;29309;42.682;23.372;2023-05-02T06:47:36;5.03;;;2.50;;
43710;SDS011;29309;42.682;23.372;2023-05-02T06:50:01;7.72;;;2.70;;
43710;SDS011;29309;42.682;23.372;2023-05-02T06:52:27;3.25;;;2.08;;
43710;SDS011;29309;42.682;23.372;2023-05-02T06:54:52;5.82;;;2.70;;
43710;SDS011;29309;42.682;23.372;2023-05-02T06:57:18;6.20;;;3.00;;
43710;SDS011;29309;42.682;23.372;2023-05-02T06:59:43;8.23;;;2.97;;
43710;SDS011;29309;42.682;23.372;2023-05-02T07:02:09;4.63;;;2.33;;
43710;SDS011;29309;42.682;23.372;2023-05-02T07:04:35;5.30;;;3.17;;
43710;SDS011;29309;42.682;23.372;2023-05-02T07:07:00;4.82;;;2.20;;
43710;SDS011;29309;42.682;23.372;2023-05-02T07:09:26;4.22;;;2.05;;
43710;SDS011;29309;42.682;23.372;2023-05-02T07:11:53;5.32;;;3.10;;
43710;SDS011;29309;42.682;23.372;2023-05-02T07:14:18;9.40;;;2.50;;
43710;SDS011;29309;42.682;23.372;2023-05-02T07:16:44;4.32;;;2.70;;
43710;SDS011;29309;42.682;23.372;2023-05-02T07:19:09;7.28;;;2.75;;
43710;SDS011;29309;42.682;23.372;2023-05-02T07:21:35;4.68;;;2.65;;
43710;SDS011;29309;42.682;23.372;2023-05-02T07:24:01;5.53;;;2.72;;
43710;SDS011;29309;42.682;23.372;2023-05-02T07:26:27;8.13;;;2.33;;
43710;SDS011;29309;42.682;23.372;2023-05-02T07:28:52;5.07;;;2.33;;
43710;SDS011;29309;42.682;23.372;2023-05-02T07:31:18;5.40;;;2.65;;
43710;SDS011;29309;42.682;23.372;2023-05-02T07:33:43;3.53;;;2.67;;
43710;SDS011;29309;42.682;23.372;2023-05-02T07:36:09;3.10;;;2.30;;
43710;SDS011;29309;42.682;23.372;2023-05-02T07:38:34;2.85;;;1.60;;
43710;SDS011;29309;42.682;23.372;2023-05-02T07:41:00;4.38;;;2.60;;
43710;SDS011;29309;42.682;23.372;2023-05-02T07:43:25;7.97;;;2.90;;
43710;SDS011;29309;42.682;23.372;2023-05-02T07:45:51;7.80;;;3.75;;
43710;SDS011;29309;42.682;23.372;2023-05-02T07:48:17;7.88;;;3.42;;
43710;SDS011;29309;42.682;23.372;2023-05-02T07:50:42;6.97;;;2.53;;
43710;SDS011;29309;42.682;23.372;2023-05-02T07:53:08;7.32;;;2.20;;
43710;SDS011;29309;42.682;23.372;2023-05-02T07:55:33;6.93;;;3.72;;
43710;SDS011;29309;42.682;23.372;2023-05-02T07:57:59;5.40;;;2.10;;
43710;SDS011;29309;42.682;23.372;2023-05-02T08:00:24;3.30;;;2.10;;
43710;SDS011;29309;42.682;23.372;2023-05-02T08:02:50;5.88;;;2.50;;
43710;SDS011;29309;42.682;23.372;2023-05-02T08:05:15;4.97;;;2.10;;
43710;SDS011;29309;42.682;23.372;2023-05-02T08:07:41;3.03;;;2.08;;
43710;SDS011;29309;42.682;23.372;2023-05-02T08:10:07;6.57;;;2.17;;
43710;SDS011;29309;42.682;23.372;2023-05-02T08:12:36;4.45;;;1.77;;
43710;SDS011;29309;42.682;23.372;2023-05-02T08:15:04;2.50;;;2.00;;
43710;SDS011;29309;42.682;23.372;2023-05-02T08:17:34;5.20;;;2.33;;
43710;SDS011;29309;42.682;23.372;2023-05-02T08:19:59;7.07;;;2.80;;
43710;SDS011;29309;42.682;23.372;2023-05-02T08:22:25;6.30;;;2.00;;
43710;SDS011;29309;42.682;23.372;2023-05-02T08:24:50;6.00;;;2.22;;
43710;SDS011;29309;42.682;23.372;2023-05-02T08:27:16;5.75;;;2.28;;
43710;SDS011;29309;42.682;23.372;2023-05-02T08:29:41;5.78;;;2.47;;
43710;SDS011;29309;42.682;23.372;2023-05-02T08:32:06;5.32;;;2.10;;
43710;SDS011;29309;42.682;23.372;2023-05-02T08:34:32;5.70;;;2.28;;
43710;SDS011;29309;42.682;23.372;2023-05-02T08:36:58;4.45;;;2.20;;
43710;SDS011;29309;42.682;23.372;2023-05-02T08:39:23;5.47;;;2.42;;
43710;SDS011;29309;42.682;23.372;2023-05-02T08:41:48;3.72;;;1.88;;
43710;SDS011;29309;42.682;23.372;2023-05-02T08:44:14;5.53;;;1.90;;
43710;SDS011;29309;42.682;23.372;2023-05-02T08:46:40;2.97;;;1.70;;
43710;SDS011;29309;42.682;23.372;2023-05-02T08:49:06;3.63;;;1.73;;
43710;SDS011;29309;42.682;23.372;2023-05-02T08:51:34;9.55;;;2.63;;
43710;SDS011;29309;42.682;23.372;2023-05-02T08:54:01;3.72;;;2.08;;
43710;SDS011;29309;42.682;23.372;2023-05-02T08:56:31;4.90;;;2.20;;
43710;SDS011;29309;42.682;23.372;2023-05-02T08:58:57;6.15;;;2.10;;
43710;SDS011;29309;42.682;23.372;2023-05-02T09:01:22;5.28;;;1.67;;
43710;SDS011;29309;42.682;23.372;2023-05-02T09:03:51;3.85;;;2.22;;
43710;SDS011;29309;42.682;23.372;2023-05-02T09:06:19;3.05;;;1.98;;
43710;SDS011;29309;42.682;23.372;2023-05-02T09:08:46;5.00;;;2.72;;
43710;SDS011;29309;42.682;23.372;2023-05-02T09:11:13;3.95;;;1.60;;
43710;SDS011;29309;42.682;23.372;2023-05-02T09:18:35;4.50;;;2.10;;
43710;SDS011;29309;42.682;23.372;2023-05-02T09:21:06;6.80;;;1.58;;
43710;SDS011;29309;42.682;23.372;2023-05-02T09:26:09;7.53;;;1.67;;
43710;SDS011;29309;42.682;23.372;2023-05-02T09:28:37;3.30;;;1.77;;
43710;SDS011;29309;42.682;23.372;2023-05-02T09:31:10;4.40;;;2.10;;
43710;SDS011;29309;42.682;23.372;2023-05-02T09:33:39;6.80;;;1.67;;
43710;SDS011;29309;42.682;23.372;2023-05-02T09:36:05;6.72;;;1.90;;
43710;SDS011;29309;42.682;23.372;2023-05-02T09:38:32;5.93;;;1.85;;
43710;SDS011;29309;42.682;23.372;2023-05-02T09:40:58;9.68;;;1.73;;
43710;SDS011;29309;42.682;23.372;2023-05-02T09:43:24;3.40;;;1.52;;
43710;SDS011;29309;42.682;23.372;2023-05-02T09:45:57;14.25;;;2.72;;
43710;SDS011;29309;42.682;23.372;2023-05-02T09:48:22;4.22;;;1.77;;
43710;SDS011;29309;42.682;23.372;2023-05-02T09:50:48;2.58;;;1.95;;
43710;SDS011;29309;42.682;23.372;2023-05-02T09:53:14;4.38;;;1.85;;
43710;SDS011;29309;42.682;23.372;2023-05-02T09:55:39;2.75;;;1.33;;
43710;SDS011;29309;42.682;23.372;2023-05-02T09:58:05;2.47;;;1.50;;
43710;SDS011;29309;42.682;23.372;2023-05-02T10:00:41;3.55;;;1.88;;
43710;SDS011;29309;42.682;23.372;2023-05-02T10:03:07;7.28;;;1.80;;
43710;SDS011;29309;42.682;23.372;2023-05-02T10:05:37;2.38;;;1.60;;
43710;SDS011;29309;42.682;23.372;2023-05-02T10:08:06;4.65;;;2.00;;
43710;SDS011;29309;42.682;23.372;2023-05-02T10:10:35;3.70;;;1.55;;
43710;SDS011;29309;42.682;23.372;2023-05-02T10:13:02;2.63;;;1.63;;
43710;SDS011;29309;42.682;23.372;2023-05-02T10:15:30;6.13;;;1.50;;
43710;SDS011;29309;42.682;23.372;2023-05-02T10:17:59;1.40;;;1.20;;
43710;SDS011;29309;42.682;23.372;2023-05-02T10:20:31;3.90;;;1.40;;
43710;SDS011;29309;42.682;23.372;2023-05-02T10:23:01;11.38;;;1.60;;
43710;SDS011;29309;42.682;23.372;2023-05-02T10:25:27;1.92;;;1.33;;
43710;SDS011;29309;42.682;23.372;2023-05-02T10:27:55;4.95;;;1.40;;
43710;SDS011;29309;42.682;23.372;2023-05-02T10:30:24;1.95;;;1.55;;
43710;SDS011;29309;42.682;23.372;2023-05-02T10:32:51;5.10;;;1.75;;
43710;SDS011;29309;42.682;23.372;2023-05-02T10:35:19;2.50;;;1.35;;
43710;SDS011;29309;42.682;23.372;2023-05-02T10:37:45;2.75;;;1.13;;
43710;SDS011;29309;42.682;23.372;2023-05-02T10:40:12;7.15;;;1.67;;
43710;SDS011;29309;42.682;23.372;2023-05-02T10:42:39;4.15;;;1.38;;
43710;SDS011;29309;42.682;23.372;2023-05-02T10:50:48;2.25;;;1.17;;
43710;SDS011;29309;42.682;23.372;2023-05-02T10:53:22;1.80;;;1.20;;
43710;SDS011;29309;42.682;23.372;2023-05-02T11:04:00;5.10;;;1.60;;
43710;SDS011;29309;42.682;23.372;2023-05-02T11:06:33;3.92;;;1.60;;
43710;SDS011;29309;42.682;23.372;2023-05-02T11:11:46;3.83;;;1.63;;
43710;SDS011;29309;42.682;23.372;2023-05-02T11:19:28;2.67;;;1.35;;
43710;SDS011;29309;42.682;23.372;2023-05-02T11:22:36;4.75;;;2.10;;
43710;SDS011;29309;42.682;23.372;2023-05-02T11:25:00;6.45;;;1.85;;
43710;SDS011;29309;42.682;23.372;2023-05-02T11:29:55;5.68;;;1.95;;
43710;SDS011;29309;42.682;23.372;2023-05-02T11:35:23;5.07;;;1.60;;
43710;SDS011;29309;42.682;23.372;2023-05-02T11:37:57;3.55;;;1.48;;
43710;SDS011;29309;42.682;23.372;2023-05-02T11:40:25;4.00;;;1.77;;
43710;SDS011;29309;42.682;23.372;2023-05-02T11:42:51;2.80;;;1.80;;
43710;SDS011;29309;42.682;23.372;2023-05-02T11:45:17;5.95;;;1.52;;
43710;SDS011;29309;42.682;23.372;2023-05-02T11:47:44;3.08;;;1.88;;
43710;SDS011;29309;42.682;23.372;2023-05-02T11:50:11;5.65;;;1.73;;
43710;SDS011;29309;42.682;23.372;2023-05-02T11:52:37;3.70;;;1.60;;
43710;SDS011;29309;42.682;23.372;2023-05-02T11:55:04;4.05;;;2.10;;
43710;SDS011;29309;42.682;23.372;2023-05-02T11:57:34;5.20;;;2.10;;
43710;SDS011;29309;42.682;23.372;2023-05-02T12:00:00;7.30;;;2.22;;
43710;SDS011;29309;42.682;23.372;2023-05-02T12:02:39;4.03;;;1.40;;
43710;SDS011;29309;42.682;23.372;2023-05-02T12:05:06;6.70;;;2.50;;
43710;SDS011;29309;42.682;23.372;2023-05-02T12:07:37;4.18;;;1.85;;
43710;SDS011;29309;42.682;23.372;2023-05-02T12:10:10;2.05;;;1.42;;
43710;SDS011;29309;42.682;23.372;2023-05-02T12:12:36;6.35;;;1.60;;
43710;SDS011;29309;42.682;23.372;2023-05-02T12:15:10;5.28;;;1.58;;
43710;SDS011;29309;42.682;23.372;2023-05-02T12:17:38;6.18;;;1.80;;
43710;SDS011;29309;42.682;23.372;2023-05-02T12:20:06;2.15;;;1.45;;
43710;SDS011;29309;42.682;23.372;2023-05-02T12:22:33;2.58;;;1.50;;
43710;SDS011;29309;42.682;23.372;2023-05-02T12:24:58;4.43;;;1.70;;
43710;SDS011;29309;42.682;23.372;2023-05-02T12:27:24;2.80;;;1.85;;
43710;SDS011;29309;42.682;23.372;2023-05-02T12:29:50;4.32;;;1.13;;
43710;SDS011;29309;42.682;23.372;2023-05-02T12:32:25;6.40;;;1.50;;
43710;SDS011;29309;42.682;23.372;2023-05-02T12:34:56;4.68;;;1.30;;
43710;SDS011;29309;42.682;23.372;2023-05-02T12:37:22;5.68;;;2.67;;
43710;SDS011;29309;42.682;23.372;2023-05-02T12:39:48;3.50;;;1.38;;
43710;SDS011;29309;42.682;23.372;2023-05-02T12:42:15;3.28;;;1.92;;
43710;SDS011;29309;42.682;23.372;2023-05-02T12:44:42;2.70;;;1.30;;
43710;SDS011;29309;42.682;23.372;2023-05-02T12:47:09;5.72;;;1.35;;
43710;SDS011;29309;42.682;23.372;2023-05-02T12:52:17;1.73;;;1.33;;
43710;SDS011;29309;42.682;23.372;2023-05-02T12:54:44;5.75;;;2.22;;
43710;SDS011;29309;42.682;23.372;2023-05-02T12:57:10;2.42;;;1.38;;
43710;SDS011;29309;42.682;23.372;2023-05-02T12:59:47;3.15;;;1.60;;
43710;SDS011;29309;42.682;23.372;2023-05-02T13:02:12;6.40;;;1.60;;
43710;SDS011;29309;42.682;23.372;2023-05-02T13:04:38;5.55;;;1.45;;
43710;SDS011;29309;42.682;23.372;2023-05-02T13:07:05;5.13;;;1.50;;
43710;SDS011;29309;42.682;23.372;2023-05-02T13:09:31;3.55;;;1.38;;
43710;SDS011;29309;42.682;23.372;2023-05-02T13:11:57;6.97;;;1.45;;
43710;SDS011;29309;42.682;23.372;2023-05-02T13:14:27;2.33;;;1.30;;
43710;SDS011;29309;42.682;23.372;2023-05-02T13:16:53;4.13;;;1.50;;
43710;SDS011;29309;42.682;23.372;2023-05-02T13:19:19;4.97;;;1.50;;
43710;SDS011;29309;42.682;23.372;2023-05-02T13:21:45;4.55;;;1.40;;
43710;SDS011;29309;42.682;23.372;2023-05-02T13:24:11;5.32;;;1.65;;
43710;SDS011;29309;42.682;23.372;2023-05-02T13:26:37;3.88;;;1.20;;
43710;SDS011;29309;42.682;23.372;2023-05-02T13:29:02;3.47;;;1.77;;
43710;SDS011;29309;42.682;23.372;2023-05-02T13:31:28;2.45;;;1.63;;
43710;SDS011;29309;42.682;23.372;2023-05-02T13:33:53;6.32;;;1.60;;
43710;SDS011;29309;42.682;23.372;2023-05-02T13:36:19;4.43;;;1.70;;
43710;SDS011;29309;42.682;23.372;2023-05-02T13:38:44;2.95;;;1.27;;
43710;SDS011;29309;42.682;23.372;2023-05-02T13:41:10;3.50;;;1.20;;
43710;SDS011;29309;42.682;23.372;2023-05-02T13:43:35;5.85;;;0.90;;
43710;SDS011;29309;42.682;23.372;2023-05-02T13:46:01;6.10;;;1.30;;
43710;SDS011;29309;42.682;23.372;2023-05-02T13:48:26;7.30;;;1.20;;
43710;SDS011;29309;42.682;23.372;2023-05-02T13:50:52;2.17;;;1.15;;
43710;SDS011;29309;42.682;23.372;2023-05-02T13:53:17;2.10;;;1.00;;
43710;SDS011;29309;42.682;23.372;2023-05-02T13:55:43;4.40;;;1.52;;
43710;SDS011;29309;42.682;23.372;2023-05-02T13:58:08;5.68;;;1.23;;
43710;SDS011;29309;42.682;23.372;2023-05-02T14:00:34;3.97;;;1.30;;
43710;SDS011;29309;42.682;23.372;2023-05-02T14:03:00;2.05;;;1.27;;
43710;SDS011;29309;42.682;23.372;2023-05-02T14:05:26;3.65;;;1.30;;
43710;SDS011;29309;42.682;23.372;2023-05-02T14:07:51;2.83;;;1.10;;
43710;SDS011;29309;42.682;23.372;2023-05-02T14:10:17;1.63;;;1.23;;
43710;SDS011;29309;42.682;23.372;2023-05-02T14:12:42;4.82;;;1.15;;
43710;SDS011;29309;42.682;23.372;2023-05-02T14:15:08;2.80;;;1.40;;
43710;SDS011;29309;42.682;23.372;2023-05-02T14:17:33;5.78;;;1.20;;
43710;SDS011;29309;42.682;23.372;2023-05-02T14:19:59;5.18;;;1.63;;
43710;SDS011;29309;42.682;23.372;2023-05-02T14:22:24;6.18;;;1.10;;
43710;SDS011;29309;42.682;23.372;2023-05-02T14:24:50;5.68;;;1.30;;
43710;SDS011;29309;42.682;23.372;2023-05-02T14:27:15;2.92;;;1.40;;
43710;SDS011;29309;42.682;23.372;2023-05-02T14:29:44;2.38;;;1.13;;
43710;SDS011;29309;42.682;23.372;2023-05-02T14:32:10;1.88;;;1.17;;
43710;SDS011;29309;42.682;23.372;2023-05-02T14:34:35;1.73;;;0.90;;
43710;SDS011;29309;42.682;23.372;2023-05-02T14:37:01;3.60;;;1.13;;
43710;SDS011;29309;42.682;23.372;2023-05-02T14:39:26;2.22;;;1.08;;
43710;SDS011;29309;42.682;23.372;2023-05-02T14:41:52;6.55;;;1.20;;
43710;SDS011;29309;42.682;23.372;2023-05-02T14:44:17;5.13;;;1.63;;
43710;SDS011;29309;42.682;23.372;2023-05-02T14:46:43;4.13;;;1.30;;
43710;SDS011;29309;42.682;23.372;2023-05-02T14:49:08;3.45;;;2.17;;
43710;SDS011;29309;42.682;23.372;2023-05-02T14:51:36;7.53;;;1.60;;
43710;SDS011;29309;42.682;23.372;2023-05-02T14:54:03;3.72;;;1.23;;
43710;SDS011;29309;42.682;23.372;2023-05-02T14:56:28;3.25;;;0.98;;
43710;SDS011;29309;42.682;23.372;2023-05-02T14:58:55;3.05;;;1.20;;
43710;SDS011;29309;42.682;23.372;2023-05-02T15:01:21;3.67;;;1.45;;
43710;SDS011;29309;42.682;23.372;2023-05-02T15:03:46;7.72;;;1.35;;
43710;SDS011;29309;42.682;23.372;2023-05-02T15:06:13;3.53;;;1.00;;
43710;SDS011;29309;42.682;23.372;2023-05-02T15:08:40;7.38;;;1.45;;
43710;SDS011;29309;42.682;23.372;2023-05-02T15:11:06;2.85;;;1.00;;
43710;SDS011;29309;42.682;23.372;2023-05-02T15:13:34;2.53;;;1.30;;
43710;SDS011;29309;42.682;23.372;2023-05-02T15:16:00;5.03;;;1.05;;
43710;SDS011;29309;42.682;23.372;2023-05-02T15:18:26;3.78;;;1.42;;
43710;SDS011;29309;42.682;23.372;2023-05-02T15:20:51;5.40;;;1.40;;
43710;SDS011;29309;42.682;23.372;2023-05-02T15:23:17;6.47;;;2.17;;
43710;SDS011;29309;42.682;23.372;2023-05-02T15:25:43;2.53;;;1.08;;
43710;SDS011;29309;42.682;23.372;2023-05-02T15:28:08;3.72;;;1.30;;
43710;SDS011;29309;42.682;23.372;2023-05-02T15:30:34;3.35;;;1.10;;